sensor_id;sensor_type;location;lat;lon;timestamp;pressure;altitude;pressure_sealevel;temperature;humidity
47913;BME280;33676;51.006;17.180;2022-09-09T00:04:53;99813.77;;;15.04;100.00
47913;BME280;33676;51.006;17.180;2022-09-09T00:07:47;99816.96;;;15.02;100.00
47913;BME280;33676;51.006;17.180;2022-09-09T00:10:32;99816.73;;;14.99;100.00
47913;BME280;33676;51.006;17.180;2022-09-09T00:13:26;99812.08;;;14.96;100.00
47913;BME280;33676;51.006;17.180;2022-09-09T00:16:19;99811.21;;;14.93;100.00
47913;BME280;33676;51.006;17.180;2022-09-09T00:21:33;99809.83;;;14.87;100.00
47913;BME280;33676;51.006;17.180;2022-09-09T00:27:46;99809.61;;;14.84;100.00
47913;BME280;33676;51.006;17.180;2022-09-09T00:30:27;99809.52;;;14.84;100.00
47913;BME280;33676;51.006;17.180;2022-09-09T00:33:05;99812.40;;;14.81;100.00
47913;BME280;33676;51.006;17.180;2022-09-09T00:35:49;99807.97;;;14.78;100.00
47913;BME280;33676;51.006;17.180;2022-09-09T00:38:37;99808.14;;;14.75;100.00
47913;BME280;33676;51.006;17.180;2022-09-09T00:44:37;99808.89;;;14.66;100.00
47913;BME280;33676;51.006;17.180;2022-09-09T00:47:28;99810.05;;;14.62;100.00
47913;BME280;33676;51.006;17.180;2022-09-09T00:56:21;99808.75;;;14.55;100.00
47913;BME280;33676;51.006;17.180;2022-09-09T00:59:18;99807.41;;;14.55;100.00
47913;BME280;33676;51.006;17.180;2022-09-09T01:01:55;99802.72;;;14.54;100.00
47913;BME280;33676;51.006;17.180;2022-09-09T01:04:34;99809.41;;;14.54;100.00
47913;BME280;33676;51.006;17.180;2022-09-09T01:07:16;99807.86;;;14.54;100.00
47913;BME280;33676;51.006;17.180;2022-09-09T01:10:11;99808.59;;;14.53;100.00
47913;BME280;33676;51.006;17.180;2022-09-09T01:12:47;99811.77;;;14.52;100.00
47913;BME280;33676;51.006;17.180;2022-09-09T01:15:22;99811.40;;;14.50;100.00
47913;BME280;33676;51.006;17.180;2022-09-09T01:18:10;99812.97;;;14.48;100.00
47913;BME280;33676;51.006;17.180;2022-09-09T01:21:09;99814.91;;;14.47;100.00
47913;BME280;33676;51.006;17.180;2022-09-09T01:26:51;99821.16;;;14.40;100.00
47913;BME280;33676;51.006;17.180;2022-09-09T01:29:21;99821.99;;;14.37;100.00
47913;BME280;33676;51.006;17.180;2022-09-09T01:32:00;99823.73;;;14.34;100.00
47913;BME280;33676;51.006;17.180;2022-09-09T01:34:36;99823.36;;;14.31;100.00
47913;BME280;33676;51.006;17.180;2022-09-09T01:37:12;99826.48;;;14.30;100.00
47913;BME280;33676;51.006;17.180;2022-09-09T01:39:44;99822.46;;;14.28;100.00
47913;BME280;33676;51.006;17.180;2022-09-09T01:42:15;99825.83;;;14.25;100.00
47913;BME280;33676;51.006;17.180;2022-09-09T01:44:44;99831.66;;;14.23;100.00
47913;BME280;33676;51.006;17.180;2022-09-09T01:47:12;99836.31;;;14.21;100.00
47913;BME280;33676;51.006;17.180;2022-09-09T01:49:40;99838.84;;;14.18;100.00
47913;BME280;33676;51.006;17.180;2022-09-09T01:52:09;99841.98;;;14.17;100.00
47913;BME280;33676;51.006;17.180;2022-09-09T01:54:38;99845.15;;;14.13;100.00
47913;BME280;33676;51.006;17.180;2022-09-09T02:00:14;99848.67;;;14.03;100.00
47913;BME280;33676;51.006;17.180;2022-09-09T02:03:19;99850.19;;;13.98;100.00
47913;BME280;33676;51.006;17.180;2022-09-09T02:08:50;99845.50;;;13.89;100.00
47913;BME280;33676;51.006;17.180;2022-09-09T02:11:24;99848.70;;;13.86;100.00
47913;BME280;33676;51.006;17.180;2022-09-09T02:14:05;99848.48;;;13.84;100.00
47913;BME280;33676;51.006;17.180;2022-09-09T02:19:23;99858.82;;;13.77;100.00
47913;BME280;33676;51.006;17.180;2022-09-09T02:21:56;99857.27;;;13.75;100.00
47913;BME280;33676;51.006;17.180;2022-09-09T02:24:29;99856.60;;;13.73;100.00
47913;BME280;33676;51.006;17.180;2022-09-09T02:27:01;99858.26;;;13.70;100.00
47913;BME280;33676;51.006;17.180;2022-09-09T02:29:36;99860.54;;;13.68;100.00
47913;BME280;33676;51.006;17.180;2022-09-09T02:32:12;99858.30;;;13.68;100.00
47913;BME280;33676;51.006;17.180;2022-09-09T02:34:48;99854.01;;;13.67;100.00
47913;BME280;33676;51.006;17.180;2022-09-09T02:37:22;99856.84;;;13.67;100.00
47913;BME280;33676;51.006;17.180;2022-09-09T02:39:53;99857.73;;;13.66;100.00
47913;BME280;33676;51.006;17.180;2022-09-09T02:42:21;99860.13;;;13.67;100.00
47913;BME280;33676;51.006;17.180;2022-09-09T02:44:50;99864.77;;;13.66;100.00
47913;BME280;33676;51.006;17.180;2022-09-09T02:50:32;99867.01;;;13.63;100.00
47913;BME280;33676;51.006;17.180;2022-09-09T02:53:16;99868.85;;;13.56;100.00
47913;BME280;33676;51.006;17.180;2022-09-09T02:56:04;99865.97;;;13.50;100.00
47913;BME280;33676;51.006;17.180;2022-09-09T02:58:33;99863.52;;;13.45;100.00
47913;BME280;33676;51.006;17.180;2022-09-09T03:01:02;99871.58;;;13.42;100.00
47913;BME280;33676;51.006;17.180;2022-09-09T03:03:31;99870.56;;;13.37;100.00
47913;BME280;33676;51.006;17.180;2022-09-09T03:06:00;99870.69;;;13.34;100.00
47913;BME280;33676;51.006;17.180;2022-09-09T03:08:29;99879.41;;;13.32;100.00
47913;BME280;33676;51.006;17.180;2022-09-09T03:10:59;99881.64;;;13.28;100.00
47913;BME280;33676;51.006;17.180;2022-09-09T03:13:29;99882.33;;;13.24;100.00
47913;BME280;33676;51.006;17.180;2022-09-09T03:15:57;99883.67;;;13.21;100.00
47913;BME280;33676;51.006;17.180;2022-09-09T03:18:26;99887.52;;;13.18;100.00
47913;BME280;33676;51.006;17.180;2022-09-09T03:20:56;99886.92;;;13.17;100.00
47913;BME280;33676;51.006;17.180;2022-09-09T03:23:25;99888.13;;;13.15;100.00
47913;BME280;33676;51.006;17.180;2022-09-09T03:25:54;99886.11;;;13.14;100.00
47913;BME280;33676;51.006;17.180;2022-09-09T03:28:25;99884.41;;;13.13;100.00
47913;BME280;33676;51.006;17.180;2022-09-09T03:31:05;99881.79;;;13.11;100.00
47913;BME280;33676;51.006;17.180;2022-09-09T03:33:34;99881.61;;;13.10;100.00
47913;BME280;33676;51.006;17.180;2022-09-09T03:36:05;99882.52;;;13.07;100.00
47913;BME280;33676;51.006;17.180;2022-09-09T03:38:35;99881.91;;;13.05;100.00
47913;BME280;33676;51.006;17.180;2022-09-09T03:41:04;99889.11;;;13.03;100.00
47913;BME280;33676;51.006;17.180;2022-09-09T03:43:36;99894.35;;;13.00;100.00
47913;BME280;33676;51.006;17.180;2022-09-09T03:46:04;99896.28;;;12.98;100.00
47913;BME280;33676;51.006;17.180;2022-09-09T03:48:33;99899.02;;;12.95;100.00
47913;BME280;33676;51.006;17.180;2022-09-09T03:51:01;99896.52;;;12.89;100.00
47913;BME280;33676;51.006;17.180;2022-09-09T03:53:31;99895.70;;;12.82;100.00
47913;BME280;33676;51.006;17.180;2022-09-09T03:56:00;99898.33;;;12.80;100.00
47913;BME280;33676;51.006;17.180;2022-09-09T03:58:28;99901.02;;;12.79;100.00
47913;BME280;33676;51.006;17.180;2022-09-09T04:01:04;99901.38;;;12.79;100.00
47913;BME280;33676;51.006;17.180;2022-09-09T04:03:32;99901.54;;;12.79;100.00
47913;BME280;33676;51.006;17.180;2022-09-09T04:06:03;99903.34;;;12.81;100.00
47913;BME280;33676;51.006;17.180;2022-09-09T04:08:32;99904.52;;;12.81;100.00
47913;BME280;33676;51.006;17.180;2022-09-09T04:11:02;99905.30;;;12.80;100.00
47913;BME280;33676;51.006;17.180;2022-09-09T04:13:37;99908.83;;;12.80;100.00
47913;BME280;33676;51.006;17.180;2022-09-09T04:16:09;99909.41;;;12.79;100.00
47913;BME280;33676;51.006;17.180;2022-09-09T04:18:39;99908.60;;;12.79;100.00
47913;BME280;33676;51.006;17.180;2022-09-09T04:21:10;99910.54;;;12.76;100.00
47913;BME280;33676;51.006;17.180;2022-09-09T04:23:42;99910.24;;;12.76;100.00
47913;BME280;33676;51.006;17.180;2022-09-09T04:26:11;99908.78;;;12.77;100.00
47913;BME280;33676;51.006;17.180;2022-09-09T04:28:39;99912.62;;;12.77;100.00
47913;BME280;33676;51.006;17.180;2022-09-09T04:31:14;99909.99;;;12.77;100.00
47913;BME280;33676;51.006;17.180;2022-09-09T04:33:44;99916.14;;;12.79;100.00
47913;BME280;33676;51.006;17.180;2022-09-09T04:36:13;99912.59;;;12.79;100.00
47913;BME280;33676;51.006;17.180;2022-09-09T04:38:41;99914.45;;;12.80;100.00
47913;BME280;33676;51.006;17.180;2022-09-09T04:41:10;99912.55;;;12.81;100.00
47913;BME280;33676;51.006;17.180;2022-09-09T04:43:39;99912.72;;;12.83;100.00
47913;BME280;33676;51.006;17.180;2022-09-09T04:46:08;99914.84;;;12.87;100.00
47913;BME280;33676;51.006;17.180;2022-09-09T04:48:37;99917.58;;;12.89;100.00
47913;BME280;33676;51.006;17.180;2022-09-09T04:51:13;99915.69;;;12.91;100.00
47913;BME280;33676;51.006;17.180;2022-09-09T04:53:41;99918.56;;;12.92;100.00
47913;BME280;33676;51.006;17.180;2022-09-09T04:56:13;99917.87;;;12.94;100.00
47913;BME280;33676;51.006;17.180;2022-09-09T04:58:42;99916.48;;;12.96;100.00
47913;BME280;33676;51.006;17.180;2022-09-09T05:01:17;99916.90;;;12.97;100.00
47913;BME280;33676;51.006;17.180;2022-09-09T05:03:47;99919.98;;;12.99;100.00
47913;BME280;33676;51.006;17.180;2022-09-09T05:06:23;99920.50;;;13.03;100.00
47913;BME280;33676;51.006;17.180;2022-09-09T05:08:52;99925.70;;;13.07;100.00
47913;BME280;33676;51.006;17.180;2022-09-09T05:11:31;99927.23;;;13.12;100.00
47913;BME280;33676;51.006;17.180;2022-09-09T05:14:04;99928.23;;;13.16;100.00
47913;BME280;33676;51.006;17.180;2022-09-09T05:16:33;99923.63;;;13.22;100.00
47913;BME280;33676;51.006;17.180;2022-09-09T05:19:01;99927.51;;;13.30;100.00
47913;BME280;33676;51.006;17.180;2022-09-09T05:21:31;99927.42;;;13.36;100.00
47913;BME280;33676;51.006;17.180;2022-09-09T05:23:59;99929.86;;;13.44;100.00
47913;BME280;33676;51.006;17.180;2022-09-09T05:26:30;99930.30;;;13.50;100.00
47913;BME280;33676;51.006;17.180;2022-09-09T05:29:00;99932.57;;;13.57;100.00
47913;BME280;33676;51.006;17.180;2022-09-09T05:31:30;99937.99;;;13.65;100.00
47913;BME280;33676;51.006;17.180;2022-09-09T05:33:59;99938.84;;;13.72;100.00
47913;BME280;33676;51.006;17.180;2022-09-09T05:36:27;99941.98;;;13.80;100.00
47913;BME280;33676;51.006;17.180;2022-09-09T05:38:55;99938.48;;;13.87;100.00
47913;BME280;33676;51.006;17.180;2022-09-09T05:41:24;99941.59;;;13.95;100.00
47913;BME280;33676;51.006;17.180;2022-09-09T05:43:52;99941.23;;;14.02;100.00
47913;BME280;33676;51.006;17.180;2022-09-09T05:46:23;99941.52;;;14.10;100.00
47913;BME280;33676;51.006;17.180;2022-09-09T05:48:53;99945.65;;;14.17;100.00
47913;BME280;33676;51.006;17.180;2022-09-09T05:51:25;99942.89;;;14.26;100.00
47913;BME280;33676;51.006;17.180;2022-09-09T05:53:54;99942.77;;;14.34;100.00
47913;BME280;33676;51.006;17.180;2022-09-09T05:56:29;99945.17;;;14.44;100.00
47913;BME280;33676;51.006;17.180;2022-09-09T05:58:58;99943.69;;;14.52;100.00
47913;BME280;33676;51.006;17.180;2022-09-09T06:01:34;99945.80;;;14.60;100.00
47913;BME280;33676;51.006;17.180;2022-09-09T06:04:02;99945.51;;;14.68;100.00
47913;BME280;33676;51.006;17.180;2022-09-09T06:06:37;99946.39;;;14.77;100.00
47913;BME280;33676;51.006;17.180;2022-09-09T06:09:09;99943.45;;;14.85;100.00
47913;BME280;33676;51.006;17.180;2022-09-09T06:11:39;99944.67;;;14.94;100.00
47913;BME280;33676;51.006;17.180;2022-09-09T06:14:08;99941.26;;;15.03;100.00
47913;BME280;33676;51.006;17.180;2022-09-09T06:16:37;99935.75;;;15.14;100.00
47913;BME280;33676;51.006;17.180;2022-09-09T06:19:06;99934.91;;;15.24;100.00
47913;BME280;33676;51.006;17.180;2022-09-09T06:21:36;99931.78;;;15.32;100.00
47913;BME280;33676;51.006;17.180;2022-09-09T06:24:05;99936.20;;;15.42;100.00
47913;BME280;33676;51.006;17.180;2022-09-09T06:26:38;99938.88;;;15.52;100.00
47913;BME280;33676;51.006;17.180;2022-09-09T06:29:10;99938.77;;;15.63;100.00
47913;BME280;33676;51.006;17.180;2022-09-09T06:31:38;99941.80;;;15.76;100.00
47913;BME280;33676;51.006;17.180;2022-09-09T06:34:08;99937.09;;;15.87;100.00
47913;BME280;33676;51.006;17.180;2022-09-09T06:36:38;99935.06;;;16.00;100.00
47913;BME280;33676;51.006;17.180;2022-09-09T06:39:08;99934.26;;;16.10;100.00
47913;BME280;33676;51.006;17.180;2022-09-09T06:41:42;99941.66;;;16.22;100.00
47913;BME280;33676;51.006;17.180;2022-09-09T06:44:11;99945.52;;;16.34;100.00
47913;BME280;33676;51.006;17.180;2022-09-09T06:46:40;99946.90;;;16.47;100.00
47913;BME280;33676;51.006;17.180;2022-09-09T06:49:09;99941.42;;;16.57;100.00
47913;BME280;33676;51.006;17.180;2022-09-09T06:51:38;99944.23;;;16.67;100.00
47913;BME280;33676;51.006;17.180;2022-09-09T06:54:11;99938.20;;;16.78;100.00
47913;BME280;33676;51.006;17.180;2022-09-09T06:56:41;99934.41;;;16.89;100.00
47913;BME280;33676;51.006;17.180;2022-09-09T06:59:11;99937.61;;;16.98;100.00
47913;BME280;33676;51.006;17.180;2022-09-09T07:01:42;99948.56;;;17.06;100.00
47913;BME280;33676;51.006;17.180;2022-09-09T07:04:23;99947.84;;;17.14;100.00
47913;BME280;33676;51.006;17.180;2022-09-09T07:06:51;99947.60;;;17.21;100.00
47913;BME280;33676;51.006;17.180;2022-09-09T07:09:20;99950.56;;;17.29;100.00
47913;BME280;33676;51.006;17.180;2022-09-09T07:11:51;99955.86;;;17.39;100.00
47913;BME280;33676;51.006;17.180;2022-09-09T07:14:22;99956.77;;;17.45;100.00
47913;BME280;33676;51.006;17.180;2022-09-09T07:16:50;99954.10;;;17.49;100.00
47913;BME280;33676;51.006;17.180;2022-09-09T07:19:23;99955.84;;;17.56;100.00
47913;BME280;33676;51.006;17.180;2022-09-09T07:21:51;99959.33;;;17.63;100.00
47913;BME280;33676;51.006;17.180;2022-09-09T07:24:20;99957.19;;;17.69;100.00
47913;BME280;33676;51.006;17.180;2022-09-09T07:26:48;99957.45;;;17.76;100.00
47913;BME280;33676;51.006;17.180;2022-09-09T07:29:16;99952.38;;;17.83;100.00
47913;BME280;33676;51.006;17.180;2022-09-09T07:31:48;99949.88;;;17.92;100.00
47913;BME280;33676;51.006;17.180;2022-09-09T07:34:16;99948.32;;;17.97;100.00
47913;BME280;33676;51.006;17.180;2022-09-09T07:36:45;99950.95;;;18.05;100.00
47913;BME280;33676;51.006;17.180;2022-09-09T07:39:14;99956.58;;;18.13;100.00
47913;BME280;33676;51.006;17.180;2022-09-09T07:41:48;99952.86;;;18.21;100.00
47913;BME280;33676;51.006;17.180;2022-09-09T07:44:22;99964.36;;;18.31;100.00
47913;BME280;33676;51.006;17.180;2022-09-09T07:46:50;99970.16;;;18.38;100.00
47913;BME280;33676;51.006;17.180;2022-09-09T07:49:19;99979.64;;;18.48;100.00
47913;BME280;33676;51.006;17.180;2022-09-09T07:51:57;99979.44;;;18.59;100.00
47913;BME280;33676;51.006;17.180;2022-09-09T07:54:25;99981.88;;;18.68;100.00
47913;BME280;33676;51.006;17.180;2022-09-09T07:56:54;99984.38;;;18.76;100.00
47913;BME280;33676;51.006;17.180;2022-09-09T07:59:22;99980.45;;;18.83;100.00
47913;BME280;33676;51.006;17.180;2022-09-09T08:01:52;99980.78;;;18.92;100.00
47913;BME280;33676;51.006;17.180;2022-09-09T08:04:25;99984.84;;;19.03;100.00
47913;BME280;33676;51.006;17.180;2022-09-09T08:06:59;99982.55;;;19.15;100.00
47913;BME280;33676;51.006;17.180;2022-09-09T08:09:29;99982.07;;;19.25;100.00
47913;BME280;33676;51.006;17.180;2022-09-09T08:11:58;99974.99;;;19.33;100.00
47913;BME280;33676;51.006;17.180;2022-09-09T08:14:26;99973.89;;;19.45;100.00
47913;BME280;33676;51.006;17.180;2022-09-09T08:16:55;99972.80;;;19.57;100.00
47913;BME280;33676;51.006;17.180;2022-09-09T08:19:24;99979.29;;;19.70;100.00
47913;BME280;33676;51.006;17.180;2022-09-09T08:21:52;99976.84;;;19.83;100.00
47913;BME280;33676;51.006;17.180;2022-09-09T08:24:22;99977.15;;;19.95;100.00
47913;BME280;33676;51.006;17.180;2022-09-09T08:26:51;99978.37;;;20.05;100.00
47913;BME280;33676;51.006;17.180;2022-09-09T08:29:19;99972.61;;;20.17;100.00
47913;BME280;33676;51.006;17.180;2022-09-09T08:31:54;99975.41;;;20.32;100.00
47913;BME280;33676;51.006;17.180;2022-09-09T08:34:25;99970.98;;;20.44;100.00
47913;BME280;33676;51.006;17.180;2022-09-09T08:36:55;99963.64;;;20.58;100.00
47913;BME280;33676;51.006;17.180;2022-09-09T08:39:23;99966.38;;;20.71;100.00
47913;BME280;33676;51.006;17.180;2022-09-09T08:42:02;99964.48;;;20.82;100.00
47913;BME280;33676;51.006;17.180;2022-09-09T08:44:58;99968.98;;;20.97;100.00
47913;BME280;33676;51.006;17.180;2022-09-09T08:50:37;99972.27;;;21.33;100.00
47913;BME280;33676;51.006;17.180;2022-09-09T08:53:17;99972.41;;;21.52;100.00
47913;BME280;33676;51.006;17.180;2022-09-09T08:55:56;99971.98;;;21.70;100.00
47913;BME280;33676;51.006;17.180;2022-09-09T08:58:35;99974.52;;;21.89;100.00
47913;BME280;33676;51.006;17.180;2022-09-09T09:04:11;99974.05;;;21.95;100.00
47913;BME280;33676;51.006;17.180;2022-09-09T09:09:57;99987.20;;;22.18;100.00
47913;BME280;33676;51.006;17.180;2022-09-09T09:12:41;99988.74;;;22.30;100.00
47913;BME280;33676;51.006;17.180;2022-09-09T09:15:19;99987.24;;;22.38;100.00
47913;BME280;33676;51.006;17.180;2022-09-09T09:17:50;99981.77;;;22.55;100.00
47913;BME280;33676;51.006;17.180;2022-09-09T09:20:37;99985.52;;;22.72;100.00
47913;BME280;33676;51.006;17.180;2022-09-09T09:23:21;99979.37;;;22.90;100.00
47913;BME280;33676;51.006;17.180;2022-09-09T09:25:56;99980.34;;;23.08;100.00
47913;BME280;33676;51.006;17.180;2022-09-09T09:28:31;99987.89;;;23.23;100.00
47913;BME280;33676;51.006;17.180;2022-09-09T09:31:11;99987.83;;;23.34;100.00
47913;BME280;33676;51.006;17.180;2022-09-09T09:36:08;99989.12;;;23.75;100.00
47913;BME280;33676;51.006;17.180;2022-09-09T09:38:37;99990.48;;;23.91;100.00
47913;BME280;33676;51.006;17.180;2022-09-09T09:41:38;99984.88;;;23.98;100.00
47913;BME280;33676;51.006;17.180;2022-09-09T09:44:28;99978.52;;;24.02;100.00
47913;BME280;33676;51.006;17.180;2022-09-09T09:47:19;99984.50;;;23.99;100.00
47913;BME280;33676;51.006;17.180;2022-09-09T09:49:59;99989.23;;;23.93;100.00
47913;BME280;33676;51.006;17.180;2022-09-09T09:52:32;99986.34;;;23.90;100.00
47913;BME280;33676;51.006;17.180;2022-09-09T09:55:04;99987.16;;;23.91;100.00
47913;BME280;33676;51.006;17.180;2022-09-09T09:57:40;99985.21;;;23.92;100.00
47913;BME280;33676;51.006;17.180;2022-09-09T10:02:44;99990.48;;;24.36;100.00
47913;BME280;33676;51.006;17.180;2022-09-09T10:05:18;99987.64;;;24.73;100.00
47913;BME280;33676;51.006;17.180;2022-09-09T10:08:14;99991.29;;;25.14;100.00
47913;BME280;33676;51.006;17.180;2022-09-09T10:14:19;99990.36;;;25.30;100.00
47913;BME280;33676;51.006;17.180;2022-09-09T10:17:15;99990.45;;;25.38;100.00
47913;BME280;33676;51.006;17.180;2022-09-09T10:22:52;99993.48;;;26.13;99.78
47913;BME280;33676;51.006;17.180;2022-09-09T10:28:50;99996.94;;;26.49;98.30
47913;BME280;33676;51.006;17.180;2022-09-09T10:34:56;99986.77;;;26.86;95.25
47913;BME280;33676;51.006;17.180;2022-09-09T10:40:59;99980.94;;;26.91;93.75
47913;BME280;33676;51.006;17.180;2022-09-09T10:57:28;99979.68;;;28.45;90.62
47913;BME280;33676;51.006;17.180;2022-09-09T11:00:15;99981.85;;;28.84;91.07
47913;BME280;33676;51.006;17.180;2022-09-09T11:02:55;99981.45;;;29.11;90.42
47913;BME280;33676;51.006;17.180;2022-09-09T11:08:31;99979.39;;;29.51;89.24
47913;BME280;33676;51.006;17.180;2022-09-09T11:11:13;99981.05;;;29.79;87.69
47913;BME280;33676;51.006;17.180;2022-09-09T11:21:50;99988.29;;;30.59;83.96
47913;BME280;33676;51.006;17.180;2022-09-09T11:24:43;99993.79;;;30.85;83.06
47913;BME280;33676;51.006;17.180;2022-09-09T11:27:41;99991.45;;;31.11;82.39
47913;BME280;33676;51.006;17.180;2022-09-09T11:30:18;99991.54;;;31.56;82.13
47913;BME280;33676;51.006;17.180;2022-09-09T11:33:31;99989.32;;;31.81;80.71
47913;BME280;33676;51.006;17.180;2022-09-09T11:36:47;99988.32;;;32.07;80.26
47913;BME280;33676;51.006;17.180;2022-09-09T11:42:15;99978.95;;;31.65;76.28
47913;BME280;33676;51.006;17.180;2022-09-09T11:44:46;99982.13;;;31.20;74.99
47913;BME280;33676;51.006;17.180;2022-09-09T11:47:30;99988.23;;;30.86;75.16
47913;BME280;33676;51.006;17.180;2022-09-09T11:52:45;99987.64;;;31.35;76.03
47913;BME280;33676;51.006;17.180;2022-09-09T11:55:28;99989.27;;;31.68;75.43
47913;BME280;33676;51.006;17.180;2022-09-09T11:58:14;99982.14;;;32.11;75.09
47913;BME280;33676;51.006;17.180;2022-09-09T12:00:47;99983.56;;;32.48;74.30
47913;BME280;33676;51.006;17.180;2022-09-09T12:03:51;99988.99;;;32.85;74.14
47913;BME280;33676;51.006;17.180;2022-09-09T12:06:43;99987.74;;;33.20;73.74
47913;BME280;33676;51.006;17.180;2022-09-09T12:09:57;99985.14;;;33.20;73.21
47913;BME280;33676;51.006;17.180;2022-09-09T12:12:31;99984.95;;;33.08;72.12
47913;BME280;33676;51.006;17.180;2022-09-09T12:15:29;99982.47;;;33.27;71.78
47913;BME280;33676;51.006;17.180;2022-09-09T12:17:58;99971.79;;;33.65;71.67
47913;BME280;33676;51.006;17.180;2022-09-09T12:20:34;99965.80;;;34.09;71.62
47913;BME280;33676;51.006;17.180;2022-09-09T12:23:35;99964.60;;;34.47;70.98
47913;BME280;33676;51.006;17.180;2022-09-09T12:26:47;99966.20;;;34.94;71.12
47913;BME280;33676;51.006;17.180;2022-09-09T12:37:38;99967.06;;;36.41;68.92
47913;BME280;33676;51.006;17.180;2022-09-09T12:40:36;99967.04;;;36.65;67.92
47913;BME280;33676;51.006;17.180;2022-09-09T12:43:23;99966.91;;;36.89;67.20
47913;BME280;33676;51.006;17.180;2022-09-09T12:45:57;99960.83;;;37.09;66.55
47913;BME280;33676;51.006;17.180;2022-09-09T12:48:35;99968.23;;;37.18;66.36
47913;BME280;33676;51.006;17.180;2022-09-09T12:51:16;99975.30;;;37.57;66.60
47913;BME280;33676;51.006;17.180;2022-09-09T12:53:46;99978.95;;;37.77;64.69
47913;BME280;33676;51.006;17.180;2022-09-09T12:56:21;99978.04;;;37.82;64.45
47913;BME280;33676;51.006;17.180;2022-09-09T12:58:51;99975.51;;;37.94;64.10
47913;BME280;33676;51.006;17.180;2022-09-09T13:01:32;99965.30;;;37.95;63.68
47913;BME280;33676;51.006;17.180;2022-09-09T13:04:02;99958.59;;;38.03;63.61
47913;BME280;33676;51.006;17.180;2022-09-09T13:06:32;99960.78;;;38.07;63.72
47913;BME280;33676;51.006;17.180;2022-09-09T13:09:03;99965.70;;;37.97;63.01
47913;BME280;33676;51.006;17.180;2022-09-09T13:14:06;99961.11;;;36.98;61.26
47913;BME280;33676;51.006;17.180;2022-09-09T13:16:35;99951.85;;;36.61;61.24
47913;BME280;33676;51.006;17.180;2022-09-09T13:19:15;99945.09;;;36.47;61.68
47913;BME280;33676;51.006;17.180;2022-09-09T13:21:44;99942.42;;;36.34;61.28
47913;BME280;33676;51.006;17.180;2022-09-09T13:24:33;99931.94;;;36.08;61.23
47913;BME280;33676;51.006;17.180;2022-09-09T13:27:33;99926.48;;;36.05;61.72
47913;BME280;33676;51.006;17.180;2022-09-09T13:38:21;99935.20;;;35.47;60.53
47913;BME280;33676;51.006;17.180;2022-09-09T13:41:05;99933.32;;;35.21;60.31
47913;BME280;33676;51.006;17.180;2022-09-09T13:43:42;99933.61;;;35.31;60.90
47913;BME280;33676;51.006;17.180;2022-09-09T13:46:34;99928.39;;;35.46;61.09
47913;BME280;33676;51.006;17.180;2022-09-09T13:49:21;99922.17;;;35.62;60.85
47913;BME280;33676;51.006;17.180;2022-09-09T13:51:51;99917.56;;;35.89;60.85
47913;BME280;33676;51.006;17.180;2022-09-09T13:54:21;99913.45;;;36.00;60.36
47913;BME280;33676;51.006;17.180;2022-09-09T13:56:50;99908.08;;;36.06;60.07
47913;BME280;33676;51.006;17.180;2022-09-09T13:59:19;99906.08;;;36.36;59.72
47913;BME280;33676;51.006;17.180;2022-09-09T14:01:48;99904.70;;;36.74;59.66
47913;BME280;33676;51.006;17.180;2022-09-09T14:04:20;99907.44;;;37.25;59.92
47913;BME280;33676;51.006;17.180;2022-09-09T14:06:51;99911.54;;;37.45;58.92
47913;BME280;33676;51.006;17.180;2022-09-09T14:09:19;99914.73;;;37.16;58.41
47913;BME280;33676;51.006;17.180;2022-09-09T14:11:48;99918.34;;;37.04;58.44
47913;BME280;33676;51.006;17.180;2022-09-09T14:14:16;99911.35;;;37.14;58.52
47913;BME280;33676;51.006;17.180;2022-09-09T14:16:44;99909.58;;;37.05;57.75
47913;BME280;33676;51.006;17.180;2022-09-09T14:19:13;99915.81;;;36.88;57.85
47913;BME280;33676;51.006;17.180;2022-09-09T14:21:41;99922.23;;;36.79;58.01
47913;BME280;33676;51.006;17.180;2022-09-09T14:24:10;99930.92;;;36.85;57.61
47913;BME280;33676;51.006;17.180;2022-09-09T14:26:40;99929.73;;;36.80;58.13
47913;BME280;33676;51.006;17.180;2022-09-09T14:29:09;99933.52;;;36.51;57.73
47913;BME280;33676;51.006;17.180;2022-09-09T14:31:37;99923.91;;;36.05;57.13
47913;BME280;33676;51.006;17.180;2022-09-09T14:34:05;99925.59;;;35.56;57.49
47913;BME280;33676;51.006;17.180;2022-09-09T14:36:34;99922.91;;;35.06;56.77
47913;BME280;33676;51.006;17.180;2022-09-09T14:39:03;99920.04;;;34.55;57.08
47913;BME280;33676;51.006;17.180;2022-09-09T14:41:32;99917.14;;;34.15;57.87
47913;BME280;33676;51.006;17.180;2022-09-09T14:44:01;99914.30;;;33.84;58.14
47913;BME280;33676;51.006;17.180;2022-09-09T14:46:29;99914.24;;;33.55;58.52
47913;BME280;33676;51.006;17.180;2022-09-09T14:48:57;99914.86;;;33.23;58.81
47913;BME280;33676;51.006;17.180;2022-09-09T14:51:27;99913.68;;;32.93;59.30
47913;BME280;33676;51.006;17.180;2022-09-09T14:53:58;99911.19;;;32.57;59.14
47913;BME280;33676;51.006;17.180;2022-09-09T14:56:30;99908.95;;;32.23;59.47
47913;BME280;33676;51.006;17.180;2022-09-09T14:58:59;99907.89;;;31.98;59.59
47913;BME280;33676;51.006;17.180;2022-09-09T15:01:30;99906.45;;;31.77;60.25
47913;BME280;33676;51.006;17.180;2022-09-09T15:04:03;99898.61;;;31.52;60.22
47913;BME280;33676;51.006;17.180;2022-09-09T15:06:35;99900.25;;;31.29;60.64
47913;BME280;33676;51.006;17.180;2022-09-09T15:09:06;99891.02;;;31.03;60.63
47913;BME280;33676;51.006;17.180;2022-09-09T15:11:37;99889.84;;;30.77;61.05
47913;BME280;33676;51.006;17.180;2022-09-09T15:14:08;99881.31;;;30.56;61.78
47913;BME280;33676;51.006;17.180;2022-09-09T15:16:39;99884.64;;;30.40;62.32